Time,TemperatureF,DewpointF,PressureIn,WindDirection,WindDirectionDegrees,WindSpeedMPH,WindSpeedGustMPH,Humidity,HourlyPrecipIn,Conditions,Clouds,dailyrainin,SoftwareType,DateUTC
2013-10-26 00:24:00,37.0,27.0,-100.00,SSW,210,6.0,12.0,69,0.00,,,-99.99,,2013-10-26 04:24:00,
2013-10-26 00:44:00,36.0,28.0,-100.00,SW,215,6.0,9.0,71,0.00,,,-99.99,,2013-10-26 04:44:00,
2013-10-26 01:23:00,35.0,28.0,-100.00,SW,225,4.0,6.0,76,0.00,,,-99.99,,2013-10-26 05:23:00,
2013-10-26 01:43:00,35.0,28.0,-100.00,SW,220,5.0,7.0,75,0.00,,,-99.99,,2013-10-26 05:43:00,
2013-10-26 02:12:00,35.0,28.0,-100.00,SW,215,5.0,11.0,73,0.00,,,-99.99,,2013-10-26 06:12:00,
2013-10-26 02:22:00,35.0,28.0,-100.00,SW,220,7.0,9.0,74,0.00,,,-99.99,,2013-10-26 06:22:00,
2013-10-26 02:32:00,35.0,28.0,-100.00,SW,220,7.0,9.0,74,0.00,,,-99.99,,2013-10-26 06:32:00,
2013-10-26 02:42:00,35.0,28.0,-100.00,SW,220,7.0,9.0,74,0.00,,,-99.99,,2013-10-26 06:42:00,
2013-10-26 02:52:00,35.0,28.0,-100.00,SW,215,6.0,9.0,74,0.00,,,-99.99,,2013-10-26 06:52:00,
2013-10-26 03:12:00,35.0,27.0,-100.00,SSW,205,9.0,11.0,72,0.00,,,-99.99,,2013-10-26 07:12:00,
2013-10-26 03:52:00,35.0,27.0,-100.00,SW,230,4.0,9.0,74,0.00,,,-99.99,,2013-10-26 07:52:00,
2013-10-26 04:12:00,35.0,27.0,-100.00,SW,225,4.0,8.0,72,0.00,,,-99.99,,2013-10-26 08:12:00,
2013-10-26 04:42:00,35.0,27.0,-100.00,SSW,210,6.0,8.0,73,0.00,,,-99.99,,2013-10-26 08:42:00,
2013-10-26 04:52:00,35.0,27.0,-100.00,SSW,205,6.0,11.0,72,0.00,,,-99.99,,2013-10-26 08:52:00,
2013-10-26 05:11:00,35.0,27.0,-100.00,SSW,205,7.0,10.0,71,0.00,,,-99.99,,2013-10-26 09:11:00,
2013-10-26 05:53:00,35.0,27.0,-100.00,SSW,205,8.0,12.0,72,0.00,,,-99.99,,2013-10-26 09:53:00,
2013-10-26 06:13:00,36.0,27.0,-100.00,SW,220,10.0,14.0,69,0.00,,,-99.99,,2013-10-26 10:13:00,
2013-10-26 06:53:00,35.0,26.0,-100.00,SSW,210,7.0,12.0,70,0.00,,,-99.99,,2013-10-26 10:53:00,
2013-10-26 07:12:00,35.0,26.0,-100.00,SW,225,10.0,14.0,70,0.00,,,-99.99,,2013-10-26 11:12:00,
2013-10-26 07:52:00,34.0,27.0,-100.00,SW,215,10.0,14.0,72,0.00,,,-99.99,,2013-10-26 11:52:00,
2013-10-26 08:12:00,34.0,27.0,-100.00,SSW,210,8.0,13.0,73,0.00,,,-99.99,,2013-10-26 12:12:00,
2013-10-26 08:52:00,35.0,26.0,-100.00,SW,215,10.0,16.0,71,0.00,,,-99.99,,2013-10-26 12:52:00,
2013-10-26 09:01:00,35.0,26.0,-100.00,SW,215,10.0,16.0,71,0.00,,,-99.99,,2013-10-26 13:01:00,
2013-10-26 09:52:00,37.0,27.0,-100.00,SW,225,12.0,19.0,65,0.00,,,-99.99,,2013-10-26 13:52:00,
2013-10-26 10:11:00,39.0,27.0,-100.00,SW,220,12.0,19.0,62,0.00,,,-99.99,,2013-10-26 14:11:00,
2013-10-26 10:22:00,39.0,27.0,-100.00,SW,220,12.0,19.0,62,0.00,,,-99.99,,2013-10-26 14:22:00,
2013-10-26 10:32:00,39.0,27.0,-100.00,SW,220,12.0,19.0,62,0.00,,,-99.99,,2013-10-26 14:32:00,
2013-10-26 10:52:00,41.0,27.0,-100.00,SW,225,19.0,29.0,55,0.00,,,-99.99,,2013-10-26 14:52:00,
2013-10-26 11:12:00,43.0,28.0,-100.00,SW,235,13.0,25.0,56,0.00,,,-99.99,,2013-10-26 15:12:00,
2013-10-26 11:44:00,43.0,27.0,-100.00,SW,230,17.0,25.0,54,0.00,,,-99.99,,2013-10-26 15:44:00,
2013-10-26 11:55:00,43.0,27.0,-100.00,SW,230,17.0,25.0,54,0.00,,,-99.99,,2013-10-26 15:55:00,
2013-10-26 12:14:00,45.0,29.0,-100.00,WSW,240,14.0,22.0,53,0.00,,,-99.99,,2013-10-26 16:14:00,
2013-10-26 12:54:00,45.0,28.0,-100.00,SW,215,14.0,22.0,51,0.00,,,-99.99,,2013-10-26 16:54:00,
2013-10-26 13:13:00,46.0,27.0,-100.00,SW,230,19.0,23.0,46,0.00,,,-99.99,,2013-10-26 17:13:00,
2013-10-26 13:52:00,46.0,28.0,-100.00,SW,220,10.0,21.0,49,0.00,,,-99.99,,2013-10-26 17:52:00,
2013-10-26 14:12:00,46.0,28.0,-100.00,SW,225,15.0,22.0,48,0.00,,,-99.99,,2013-10-26 18:12:00,
2013-10-26 14:52:00,46.0,28.0,-100.00,SW,215,14.0,27.0,48,0.00,,,-99.99,,2013-10-26 18:52:00,
2013-10-26 15:12:00,46.0,28.0,-100.00,SSW,205,13.0,25.0,49,0.00,,,-99.99,,2013-10-26 19:12:00,
2013-10-26 15:52:00,47.0,28.0,-100.00,SSW,210,18.0,25.0,46,0.00,,,-99.99,,2013-10-26 19:52:00,
2013-10-26 16:12:00,47.0,27.0,-100.00,SSW,205,15.0,23.0,45,0.00,,,-99.99,,2013-10-26 20:12:00,
2013-10-26 16:52:00,47.0,28.0,-100.00,SW,225,13.0,23.0,48,0.00,,,-99.99,,2013-10-26 20:52:00,
2013-10-26 17:11:00,47.0,28.0,-100.00,SW,215,15.0,25.0,47,0.00,,,-99.99,,2013-10-26 21:11:00,
2013-10-26 17:55:00,47.0,29.0,-100.00,SW,220,14.0,20.0,48,0.00,,,-99.99,,2013-10-26 21:55:00,
2013-10-26 18:14:00,47.0,29.0,-100.00,West,270,7.0,17.0,49,0.00,,,-99.99,,2013-10-26 22:14:00,
2013-10-26 18:54:00,47.0,30.0,-100.00,SW,235,7.0,19.0,52,0.00,,,-99.99,,2013-10-26 22:54:00,
2013-10-26 19:12:00,47.0,31.0,-100.00,WSW,240,12.0,16.0,55,0.00,,,-99.99,,2013-10-26 23:12:00,
2013-10-26 19:52:00,46.0,33.0,-100.00,SW,230,9.0,12.0,60,0.00,,,-99.99,,2013-10-26 23:52:00,
2013-10-26 20:12:00,45.0,33.0,-100.00,SW,235,6.0,9.0,62,0.00,,,-99.99,,2013-10-27 00:12:00,
2013-10-26 20:52:00,45.0,33.0,-100.00,SW,220,4.0,6.0,64,0.00,,,-99.99,,2013-10-27 00:52:00,
2013-10-26 21:12:00,45.0,34.0,-100.00,WSW,240,4.0,6.0,65,0.00,,,-99.99,,2013-10-27 01:12:00,
2013-10-26 21:52:00,44.0,35.0,-100.00,SW,230,3.0,6.0,68,0.00,,,-99.99,,2013-10-27 01:52:00,
2013-10-26 22:12:00,44.0,34.0,-100.00,West,260,3.0,6.0,66,0.00,,,-99.99,,2013-10-27 02:12:00,
2013-10-26 22:52:00,44.0,34.0,-100.00,NW,305,4.0,7.0,68,0.00,,,-99.99,,2013-10-27 02:52:00,
2013-10-26 23:12:00,44.0,34.0,-100.00,SW,220,2.0,5.0,68,0.00,,,-99.99,,2013-10-27 03:12:00,
2013-10-26 23:55:00,42.0,34.0,-100.00,WSW,245,2.0,4.0,72,0.00,,,-99.99,,2013-10-27 03:55:00,